sensor_id;sensor_type;location;lat;lon;timestamp;P1;durP1;ratioP1;P2;durP2;ratioP2
51614;SDS011;37695;52.960;6.188;2023-10-13T00:01:21;25.10;;;17.23;;
51614;SDS011;37695;52.960;6.188;2023-10-13T00:03:48;26.38;;;14.95;;
51614;SDS011;37695;52.960;6.188;2023-10-13T00:06:14;20.25;;;16.38;;
51614;SDS011;37695;52.960;6.188;2023-10-13T00:08:40;24.80;;;15.80;;
51614;SDS011;37695;52.960;6.188;2023-10-13T00:11:10;25.23;;;15.15;;
51614;SDS011;37695;52.960;6.188;2023-10-13T00:13:37;24.70;;;14.77;;
51614;SDS011;37695;52.960;6.188;2023-10-13T00:16:29;23.95;;;13.98;;
51614;SDS011;37695;52.960;6.188;2023-10-13T00:18:55;26.67;;;15.60;;
51614;SDS011;37695;52.960;6.188;2023-10-13T00:21:24;25.13;;;15.95;;
51614;SDS011;37695;52.960;6.188;2023-10-13T00:23:56;22.52;;;15.52;;
51614;SDS011;37695;52.960;6.188;2023-10-13T00:26:25;20.00;;;13.05;;
51614;SDS011;37695;52.960;6.188;2023-10-13T00:28:55;22.25;;;14.90;;
51614;SDS011;37695;52.960;6.188;2023-10-13T00:31:32;20.27;;;14.27;;
51614;SDS011;37695;52.960;6.188;2023-10-13T00:34:01;23.73;;;16.13;;
51614;SDS011;37695;52.960;6.188;2023-10-13T00:36:43;19.50;;;14.10;;
51614;SDS011;37695;52.960;6.188;2023-10-13T00:39:28;21.08;;;15.98;;
51614;SDS011;37695;52.960;6.188;2023-10-13T00:41:54;24.17;;;12.95;;
51614;SDS011;37695;52.960;6.188;2023-10-13T00:44:23;18.40;;;12.70;;
51614;SDS011;37695;52.960;6.188;2023-10-13T00:47:02;25.50;;;13.48;;
51614;SDS011;37695;52.960;6.188;2023-10-13T00:49:32;21.38;;;13.38;;
51614;SDS011;37695;52.960;6.188;2023-10-13T00:52:01;21.30;;;11.70;;
51614;SDS011;37695;52.960;6.188;2023-10-13T00:54:27;19.52;;;12.93;;
51614;SDS011;37695;52.960;6.188;2023-10-13T00:56:52;20.60;;;12.98;;
51614;SDS011;37695;52.960;6.188;2023-10-13T00:59:29;19.60;;;11.85;;
51614;SDS011;37695;52.960;6.188;2023-10-13T01:02:06;20.17;;;11.48;;
51614;SDS011;37695;52.960;6.188;2023-10-13T01:05:03;22.17;;;11.38;;
51614;SDS011;37695;52.960;6.188;2023-10-13T01:07:30;19.50;;;10.45;;
51614;SDS011;37695;52.960;6.188;2023-10-13T01:09:55;17.50;;;11.50;;
51614;SDS011;37695;52.960;6.188;2023-10-13T01:12:21;17.75;;;12.88;;
51614;SDS011;37695;52.960;6.188;2023-10-13T01:14:50;21.67;;;10.90;;
51614;SDS011;37695;52.960;6.188;2023-10-13T01:17:16;19.15;;;11.20;;
51614;SDS011;37695;52.960;6.188;2023-10-13T01:19:43;18.73;;;10.93;;
51614;SDS011;37695;52.960;6.188;2023-10-13T01:22:10;22.63;;;12.13;;
51614;SDS011;37695;52.960;6.188;2023-10-13T01:24:38;20.27;;;10.40;;
51614;SDS011;37695;52.960;6.188;2023-10-13T01:27:05;19.70;;;12.80;;
51614;SDS011;37695;52.960;6.188;2023-10-13T01:29:45;20.08;;;11.13;;
51614;SDS011;37695;52.960;6.188;2023-10-13T01:32:18;14.88;;;10.05;;
51614;SDS011;37695;52.960;6.188;2023-10-13T01:34:44;17.73;;;10.88;;
51614;SDS011;37695;52.960;6.188;2023-10-13T01:37:13;18.27;;;11.15;;
51614;SDS011;37695;52.960;6.188;2023-10-13T01:39:41;20.25;;;11.45;;
51614;SDS011;37695;52.960;6.188;2023-10-13T01:42:06;18.23;;;10.65;;
51614;SDS011;37695;52.960;6.188;2023-10-13T01:44:32;15.05;;;10.48;;
51614;SDS011;37695;52.960;6.188;2023-10-13T01:46:58;16.55;;;11.10;;
51614;SDS011;37695;52.960;6.188;2023-10-13T01:49:25;17.80;;;11.45;;
51614;SDS011;37695;52.960;6.188;2023-10-13T01:51:50;20.95;;;10.43;;
51614;SDS011;37695;52.960;6.188;2023-10-13T01:54:16;19.20;;;11.50;;
51614;SDS011;37695;52.960;6.188;2023-10-13T01:56:42;17.27;;;11.82;;
51614;SDS011;37695;52.960;6.188;2023-10-13T01:59:09;22.67;;;12.02;;
51614;SDS011;37695;52.960;6.188;2023-10-13T02:01:36;24.27;;;13.13;;
51614;SDS011;37695;52.960;6.188;2023-10-13T02:04:01;22.50;;;14.38;;
51614;SDS011;37695;52.960;6.188;2023-10-13T02:06:31;24.30;;;13.57;;
51614;SDS011;37695;52.960;6.188;2023-10-13T02:09:02;21.73;;;12.98;;
51614;SDS011;37695;52.960;6.188;2023-10-13T02:11:40;20.52;;;12.68;;
51614;SDS011;37695;52.960;6.188;2023-10-13T02:14:07;21.45;;;13.60;;
51614;SDS011;37695;52.960;6.188;2023-10-13T02:16:36;21.58;;;15.38;;
51614;SDS011;37695;52.960;6.188;2023-10-13T02:19:02;23.20;;;15.00;;
51614;SDS011;37695;52.960;6.188;2023-10-13T02:21:33;22.50;;;15.10;;
51614;SDS011;37695;52.960;6.188;2023-10-13T02:24:07;20.92;;;14.07;;
51614;SDS011;37695;52.960;6.188;2023-10-13T02:26:38;26.02;;;14.25;;
51614;SDS011;37695;52.960;6.188;2023-10-13T02:29:05;29.08;;;16.95;;
51614;SDS011;37695;52.960;6.188;2023-10-13T02:31:37;21.85;;;14.20;;
51614;SDS011;37695;52.960;6.188;2023-10-13T02:34:04;23.75;;;14.98;;
51614;SDS011;37695;52.960;6.188;2023-10-13T02:36:36;23.45;;;14.68;;
51614;SDS011;37695;52.960;6.188;2023-10-13T02:39:23;23.67;;;15.32;;
51614;SDS011;37695;52.960;6.188;2023-10-13T02:41:53;19.30;;;14.43;;
51614;SDS011;37695;52.960;6.188;2023-10-13T02:44:20;25.48;;;15.38;;
51614;SDS011;37695;52.960;6.188;2023-10-13T02:46:54;19.20;;;15.57;;
51614;SDS011;37695;52.960;6.188;2023-10-13T02:49:24;23.33;;;14.23;;
51614;SDS011;37695;52.960;6.188;2023-10-13T02:51:51;16.75;;;11.32;;
51614;SDS011;37695;52.960;6.188;2023-10-13T02:54:17;15.40;;;11.45;;
51614;SDS011;37695;52.960;6.188;2023-10-13T02:56:44;15.20;;;10.02;;
51614;SDS011;37695;52.960;6.188;2023-10-13T02:59:26;13.77;;;10.52;;
51614;SDS011;37695;52.960;6.188;2023-10-13T03:02:10;12.52;;;8.73;;
51614;SDS011;37695;52.960;6.188;2023-10-13T03:04:54;14.75;;;9.93;;
51614;SDS011;37695;52.960;6.188;2023-10-13T03:07:39;14.05;;;9.00;;
51614;SDS011;37695;52.960;6.188;2023-10-13T03:10:08;14.88;;;11.75;;
51614;SDS011;37695;52.960;6.188;2023-10-13T03:12:37;15.73;;;10.55;;
51614;SDS011;37695;52.960;6.188;2023-10-13T03:15:04;14.07;;;10.77;;
51614;SDS011;37695;52.960;6.188;2023-10-13T03:17:42;15.52;;;12.50;;
51614;SDS011;37695;52.960;6.188;2023-10-13T03:20:18;16.00;;;11.95;;
51614;SDS011;37695;52.960;6.188;2023-10-13T03:22:55;15.10;;;11.75;;
51614;SDS011;37695;52.960;6.188;2023-10-13T03:25:21;15.00;;;11.75;;
51614;SDS011;37695;52.960;6.188;2023-10-13T03:28:02;17.20;;;12.70;;
51614;SDS011;37695;52.960;6.188;2023-10-13T03:30:30;15.60;;;12.90;;
51614;SDS011;37695;52.960;6.188;2023-10-13T03:33:07;17.55;;;12.85;;
51614;SDS011;37695;52.960;6.188;2023-10-13T03:35:38;16.35;;;14.38;;
51614;SDS011;37695;52.960;6.188;2023-10-13T03:38:08;18.83;;;12.57;;
51614;SDS011;37695;52.960;6.188;2023-10-13T03:40:43;17.15;;;12.98;;
51614;SDS011;37695;52.960;6.188;2023-10-13T03:43:32;17.40;;;12.27;;
51614;SDS011;37695;52.960;6.188;2023-10-13T03:46:09;16.77;;;13.75;;
51614;SDS011;37695;52.960;6.188;2023-10-13T03:48:35;16.40;;;11.73;;
51614;SDS011;37695;52.960;6.188;2023-10-13T03:53:46;14.43;;;12.48;;
51614;SDS011;37695;52.960;6.188;2023-10-13T03:56:18;13.65;;;11.30;;
51614;SDS011;37695;52.960;6.188;2023-10-13T03:59:03;18.15;;;12.43;;
51614;SDS011;37695;52.960;6.188;2023-10-13T04:01:38;17.05;;;10.15;;
51614;SDS011;37695;52.960;6.188;2023-10-13T04:04:18;17.48;;;12.25;;
51614;SDS011;37695;52.960;6.188;2023-10-13T04:07:02;14.68;;;10.80;;
51614;SDS011;37695;52.960;6.188;2023-10-13T04:09:37;14.93;;;10.40;;
51614;SDS011;37695;52.960;6.188;2023-10-13T04:12:12;14.15;;;10.30;;
51614;SDS011;37695;52.960;6.188;2023-10-13T04:14:39;18.42;;;13.75;;
51614;SDS011;37695;52.960;6.188;2023-10-13T04:17:25;16.83;;;12.70;;
51614;SDS011;37695;52.960;6.188;2023-10-13T04:19:52;16.02;;;11.38;;
51614;SDS011;37695;52.960;6.188;2023-10-13T04:22:34;15.63;;;11.27;;
51614;SDS011;37695;52.960;6.188;2023-10-13T04:25:13;17.42;;;12.70;;
51614;SDS011;37695;52.960;6.188;2023-10-13T04:27:58;19.10;;;13.90;;
51614;SDS011;37695;52.960;6.188;2023-10-13T04:33:21;15.57;;;11.70;;
51614;SDS011;37695;52.960;6.188;2023-10-13T04:36:12;17.13;;;10.90;;
51614;SDS011;37695;52.960;6.188;2023-10-13T04:38:45;17.27;;;11.65;;
51614;SDS011;37695;52.960;6.188;2023-10-13T04:41:25;15.95;;;13.10;;
51614;SDS011;37695;52.960;6.188;2023-10-13T04:44:09;13.80;;;10.63;;
51614;SDS011;37695;52.960;6.188;2023-10-13T04:46:54;17.33;;;11.48;;
51614;SDS011;37695;52.960;6.188;2023-10-13T04:49:33;12.50;;;10.10;;
51614;SDS011;37695;52.960;6.188;2023-10-13T04:52:13;14.88;;;11.45;;
51614;SDS011;37695;52.960;6.188;2023-10-13T04:54:58;15.15;;;12.27;;
51614;SDS011;37695;52.960;6.188;2023-10-13T04:57:34;13.88;;;11.07;;
51614;SDS011;37695;52.960;6.188;2023-10-13T05:00:12;13.68;;;11.75;;
51614;SDS011;37695;52.960;6.188;2023-10-13T05:02:45;13.25;;;9.57;;
51614;SDS011;37695;52.960;6.188;2023-10-13T05:05:43;13.20;;;9.18;;
51614;SDS011;37695;52.960;6.188;2023-10-13T05:08:28;10.32;;;8.27;;
51614;SDS011;37695;52.960;6.188;2023-10-13T05:11:12;13.20;;;8.63;;
51614;SDS011;37695;52.960;6.188;2023-10-13T05:13:56;11.32;;;8.15;;
51614;SDS011;37695;52.960;6.188;2023-10-13T05:16:41;13.68;;;7.72;;
51614;SDS011;37695;52.960;6.188;2023-10-13T05:19:25;8.45;;;7.22;;
51614;SDS011;37695;52.960;6.188;2023-10-13T05:22:09;10.02;;;7.03;;
51614;SDS011;37695;52.960;6.188;2023-10-13T05:24:53;8.75;;;6.97;;
51614;SDS011;37695;52.960;6.188;2023-10-13T05:27:38;9.40;;;6.40;;
51614;SDS011;37695;52.960;6.188;2023-10-13T05:30:22;9.95;;;6.75;;
51614;SDS011;37695;52.960;6.188;2023-10-13T05:33:06;10.85;;;8.10;;
51614;SDS011;37695;52.960;6.188;2023-10-13T05:35:50;10.25;;;7.80;;
51614;SDS011;37695;52.960;6.188;2023-10-13T05:38:35;8.63;;;6.82;;
51614;SDS011;37695;52.960;6.188;2023-10-13T05:41:19;8.82;;;6.68;;
51614;SDS011;37695;52.960;6.188;2023-10-13T05:44:03;10.40;;;6.03;;
51614;SDS011;37695;52.960;6.188;2023-10-13T05:46:48;10.65;;;6.05;;
51614;SDS011;37695;52.960;6.188;2023-10-13T05:49:32;11.50;;;6.65;;
51614;SDS011;37695;52.960;6.188;2023-10-13T05:52:28;8.27;;;7.45;;
51614;SDS011;37695;52.960;6.188;2023-10-13T05:55:26;9.98;;;7.15;;
51614;SDS011;37695;52.960;6.188;2023-10-13T05:58:11;9.25;;;6.63;;
51614;SDS011;37695;52.960;6.188;2023-10-13T06:00:56;8.73;;;6.53;;
51614;SDS011;37695;52.960;6.188;2023-10-13T06:03:41;7.88;;;6.35;;
51614;SDS011;37695;52.960;6.188;2023-10-13T06:06:25;10.10;;;6.78;;
51614;SDS011;37695;52.960;6.188;2023-10-13T06:09:09;7.35;;;5.53;;
51614;SDS011;37695;52.960;6.188;2023-10-13T06:11:54;7.47;;;5.25;;
51614;SDS011;37695;52.960;6.188;2023-10-13T06:14:38;5.57;;;4.30;;
51614;SDS011;37695;52.960;6.188;2023-10-13T06:17:23;7.55;;;4.47;;
51614;SDS011;37695;52.960;6.188;2023-10-13T06:20:07;8.73;;;4.28;;
51614;SDS011;37695;52.960;6.188;2023-10-13T06:25:37;5.70;;;4.65;;
51614;SDS011;37695;52.960;6.188;2023-10-13T06:28:21;6.75;;;4.05;;
51614;SDS011;37695;52.960;6.188;2023-10-13T06:31:06;6.55;;;4.50;;
51614;SDS011;37695;52.960;6.188;2023-10-13T06:33:32;6.60;;;5.05;;
51614;SDS011;37695;52.960;6.188;2023-10-13T06:36:03;7.45;;;4.85;;
51614;SDS011;37695;52.960;6.188;2023-10-13T06:38:34;6.10;;;4.28;;
51614;SDS011;37695;52.960;6.188;2023-10-13T06:41:03;7.20;;;4.60;;
51614;SDS011;37695;52.960;6.188;2023-10-13T06:43:32;7.10;;;4.53;;
51614;SDS011;37695;52.960;6.188;2023-10-13T06:46:04;7.63;;;4.38;;
51614;SDS011;37695;52.960;6.188;2023-10-13T06:48:39;10.25;;;4.38;;
51614;SDS011;37695;52.960;6.188;2023-10-13T06:51:06;7.97;;;4.57;;
51614;SDS011;37695;52.960;6.188;2023-10-13T06:53:46;10.88;;;4.75;;
51614;SDS011;37695;52.960;6.188;2023-10-13T06:56:13;6.70;;;3.90;;
51614;SDS011;37695;52.960;6.188;2023-10-13T06:58:47;5.45;;;3.55;;
51614;SDS011;37695;52.960;6.188;2023-10-13T07:01:12;10.80;;;4.53;;
51614;SDS011;37695;52.960;6.188;2023-10-13T07:03:41;8.32;;;3.90;;
51614;SDS011;37695;52.960;6.188;2023-10-13T07:06:14;9.00;;;3.97;;
51614;SDS011;37695;52.960;6.188;2023-10-13T07:08:45;7.40;;;4.20;;
51614;SDS011;37695;52.960;6.188;2023-10-13T07:11:16;8.27;;;3.83;;
51614;SDS011;37695;52.960;6.188;2023-10-13T07:14:01;9.18;;;4.15;;
51614;SDS011;37695;52.960;6.188;2023-10-13T07:16:35;10.70;;;4.38;;
51614;SDS011;37695;52.960;6.188;2023-10-13T07:19:23;8.52;;;3.90;;
51614;SDS011;37695;52.960;6.188;2023-10-13T07:21:52;10.85;;;4.53;;
51614;SDS011;37695;52.960;6.188;2023-10-13T07:24:28;11.93;;;4.00;;
51614;SDS011;37695;52.960;6.188;2023-10-13T07:26:56;9.30;;;4.88;;
51614;SDS011;37695;52.960;6.188;2023-10-13T07:29:29;10.75;;;4.22;;
51614;SDS011;37695;52.960;6.188;2023-10-13T07:31:55;16.13;;;4.78;;
51614;SDS011;37695;52.960;6.188;2023-10-13T07:34:21;11.13;;;3.90;;
51614;SDS011;37695;52.960;6.188;2023-10-13T07:36:51;7.93;;;4.03;;
51614;SDS011;37695;52.960;6.188;2023-10-13T07:39:17;9.90;;;4.05;;
51614;SDS011;37695;52.960;6.188;2023-10-13T07:41:50;8.90;;;4.65;;
51614;SDS011;37695;52.960;6.188;2023-10-13T07:44:19;9.15;;;4.32;;
51614;SDS011;37695;52.960;6.188;2023-10-13T07:46:53;14.63;;;4.35;;
51614;SDS011;37695;52.960;6.188;2023-10-13T07:49:35;13.32;;;4.60;;
51614;SDS011;37695;52.960;6.188;2023-10-13T07:52:03;10.60;;;4.30;;
51614;SDS011;37695;52.960;6.188;2023-10-13T07:55:01;14.25;;;4.75;;
51614;SDS011;37695;52.960;6.188;2023-10-13T07:57:47;13.05;;;4.50;;
51614;SDS011;37695;52.960;6.188;2023-10-13T08:00:22;15.02;;;5.40;;
51614;SDS011;37695;52.960;6.188;2023-10-13T08:03:12;13.20;;;4.85;;
51614;SDS011;37695;52.960;6.188;2023-10-13T08:05:44;14.00;;;4.75;;
51614;SDS011;37695;52.960;6.188;2023-10-13T08:08:29;12.77;;;5.05;;
51614;SDS011;37695;52.960;6.188;2023-10-13T08:11:16;11.18;;;5.32;;
51614;SDS011;37695;52.960;6.188;2023-10-13T08:13:51;11.10;;;4.80;;
51614;SDS011;37695;52.960;6.188;2023-10-13T08:16:23;15.18;;;5.30;;
51614;SDS011;37695;52.960;6.188;2023-10-13T08:18:54;11.95;;;4.63;;
51614;SDS011;37695;52.960;6.188;2023-10-13T08:21:20;13.95;;;5.47;;
51614;SDS011;37695;52.960;6.188;2023-10-13T08:23:49;13.82;;;5.30;;
51614;SDS011;37695;52.960;6.188;2023-10-13T08:26:21;9.25;;;4.45;;
51614;SDS011;37695;52.960;6.188;2023-10-13T08:29:06;12.38;;;5.03;;
51614;SDS011;37695;52.960;6.188;2023-10-13T08:31:51;8.25;;;4.40;;
51614;SDS011;37695;52.960;6.188;2023-10-13T08:34:46;10.15;;;5.10;;
51614;SDS011;37695;52.960;6.188;2023-10-13T08:37:12;9.65;;;4.95;;
51614;SDS011;37695;52.960;6.188;2023-10-13T08:39:55;14.27;;;5.35;;
51614;SDS011;37695;52.960;6.188;2023-10-13T08:42:28;16.77;;;5.40;;
51614;SDS011;37695;52.960;6.188;2023-10-13T08:45:15;8.20;;;4.50;;
51614;SDS011;37695;52.960;6.188;2023-10-13T08:47:47;11.07;;;5.70;;
51614;SDS011;37695;52.960;6.188;2023-10-13T08:50:33;20.30;;;6.40;;
51614;SDS011;37695;52.960;6.188;2023-10-13T08:53:14;11.70;;;5.55;;
51614;SDS011;37695;52.960;6.188;2023-10-13T08:58:31;15.65;;;5.85;;
51614;SDS011;37695;52.960;6.188;2023-10-13T09:01:15;11.95;;;6.55;;
51614;SDS011;37695;52.960;6.188;2023-10-13T09:03:59;10.35;;;6.20;;
51614;SDS011;37695;52.960;6.188;2023-10-13T09:06:56;13.98;;;6.20;;
51614;SDS011;37695;52.960;6.188;2023-10-13T09:14:54;13.40;;;6.78;;
51614;SDS011;37695;52.960;6.188;2023-10-13T09:17:24;11.35;;;6.00;;
51614;SDS011;37695;52.960;6.188;2023-10-13T09:20:06;12.65;;;5.65;;
51614;SDS011;37695;52.960;6.188;2023-10-13T09:22:50;16.63;;;6.15;;
51614;SDS011;37695;52.960;6.188;2023-10-13T09:25:36;11.35;;;6.03;;
51614;SDS011;37695;52.960;6.188;2023-10-13T09:28:13;10.73;;;6.35;;
51614;SDS011;37695;52.960;6.188;2023-10-13T09:30:50;14.15;;;7.35;;
51614;SDS011;37695;52.960;6.188;2023-10-13T09:33:21;12.20;;;6.03;;
51614;SDS011;37695;52.960;6.188;2023-10-13T09:35:58;11.02;;;5.85;;
51614;SDS011;37695;52.960;6.188;2023-10-13T09:38:25;13.90;;;5.47;;
51614;SDS011;37695;52.960;6.188;2023-10-13T09:40:53;10.57;;;5.32;;
51614;SDS011;37695;52.960;6.188;2023-10-13T09:43:22;14.32;;;6.57;;
51614;SDS011;37695;52.960;6.188;2023-10-13T09:45:50;10.93;;;5.90;;
51614;SDS011;37695;52.960;6.188;2023-10-13T09:48:42;14.80;;;6.22;;
51614;SDS011;37695;52.960;6.188;2023-10-13T09:51:29;13.93;;;5.57;;
51614;SDS011;37695;52.960;6.188;2023-10-13T09:54:18;12.90;;;6.32;;
51614;SDS011;37695;52.960;6.188;2023-10-13T09:56:53;10.85;;;6.10;;
51614;SDS011;37695;52.960;6.188;2023-10-13T09:59:32;14.65;;;6.35;;
51614;SDS011;37695;52.960;6.188;2023-10-13T10:02:05;13.27;;;5.95;;
51614;SDS011;37695;52.960;6.188;2023-10-13T10:04:50;14.13;;;5.85;;
51614;SDS011;37695;52.960;6.188;2023-10-13T10:07:24;12.55;;;5.55;;
51614;SDS011;37695;52.960;6.188;2023-10-13T10:09:59;16.33;;;5.68;;
51614;SDS011;37695;52.960;6.188;2023-10-13T10:17:59;13.20;;;6.45;;
51614;SDS011;37695;52.960;6.188;2023-10-13T10:20:33;14.90;;;6.80;;
51614;SDS011;37695;52.960;6.188;2023-10-13T10:23:12;11.82;;;5.80;;
51614;SDS011;37695;52.960;6.188;2023-10-13T10:25:51;13.57;;;5.72;;
51614;SDS011;37695;52.960;6.188;2023-10-13T10:28:20;16.65;;;6.47;;
51614;SDS011;37695;52.960;6.188;2023-10-13T10:30:46;14.15;;;5.90;;
51614;SDS011;37695;52.960;6.188;2023-10-13T10:33:11;15.23;;;6.07;;
51614;SDS011;37695;52.960;6.188;2023-10-13T10:35:41;12.70;;;5.85;;
51614;SDS011;37695;52.960;6.188;2023-10-13T10:38:16;16.77;;;6.88;;
51614;SDS011;37695;52.960;6.188;2023-10-13T10:43:22;14.63;;;6.40;;
51614;SDS011;37695;52.960;6.188;2023-10-13T10:48:38;17.52;;;6.18;;
51614;SDS011;37695;52.960;6.188;2023-10-13T10:51:11;14.50;;;5.97;;
51614;SDS011;37695;52.960;6.188;2023-10-13T10:53:47;18.20;;;6.20;;
51614;SDS011;37695;52.960;6.188;2023-10-13T10:56:15;20.13;;;5.90;;
51614;SDS011;37695;52.960;6.188;2023-10-13T10:58:55;14.70;;;5.90;;
51614;SDS011;37695;52.960;6.188;2023-10-13T11:01:22;17.27;;;6.45;;
51614;SDS011;37695;52.960;6.188;2023-10-13T11:04:22;13.00;;;5.90;;
51614;SDS011;37695;52.960;6.188;2023-10-13T11:06:50;12.90;;;6.00;;
51614;SDS011;37695;52.960;6.188;2023-10-13T11:09:27;10.48;;;5.47;;
51614;SDS011;37695;52.960;6.188;2023-10-13T11:12:18;10.02;;;5.07;;
51614;SDS011;37695;52.960;6.188;2023-10-13T11:14:59;12.82;;;6.10;;
51614;SDS011;37695;52.960;6.188;2023-10-13T11:17:50;13.75;;;6.35;;
51614;SDS011;37695;52.960;6.188;2023-10-13T11:20:19;16.30;;;6.07;;
51614;SDS011;37695;52.960;6.188;2023-10-13T11:23:12;15.88;;;6.10;;
51614;SDS011;37695;52.960;6.188;2023-10-13T11:25:39;14.68;;;5.97;;
51614;SDS011;37695;52.960;6.188;2023-10-13T11:28:14;14.15;;;5.88;;
51614;SDS011;37695;52.960;6.188;2023-10-13T11:30:45;15.07;;;5.78;;
51614;SDS011;37695;52.960;6.188;2023-10-13T11:33:15;13.52;;;5.40;;
51614;SDS011;37695;52.960;6.188;2023-10-13T11:35:49;12.60;;;6.25;;
51614;SDS011;37695;52.960;6.188;2023-10-13T11:40:54;17.13;;;6.05;;
51614;SDS011;37695;52.960;6.188;2023-10-13T11:43:29;13.80;;;6.05;;
51614;SDS011;37695;52.960;6.188;2023-10-13T11:46:09;14.23;;;6.13;;
51614;SDS011;37695;52.960;6.188;2023-10-13T11:48:35;20.58;;;6.30;;
51614;SDS011;37695;52.960;6.188;2023-10-13T11:51:02;19.38;;;6.38;;
51614;SDS011;37695;52.960;6.188;2023-10-13T11:53:35;17.08;;;6.50;;
51614;SDS011;37695;52.960;6.188;2023-10-13T11:56:02;14.32;;;6.55;;
51614;SDS011;37695;52.960;6.188;2023-10-13T11:58:38;15.98;;;6.53;;
51614;SDS011;37695;52.960;6.188;2023-10-13T12:01:04;16.90;;;6.07;;
51614;SDS011;37695;52.960;6.188;2023-10-13T12:03:33;18.02;;;6.22;;
51614;SDS011;37695;52.960;6.188;2023-10-13T12:06:18;11.98;;;6.03;;
51614;SDS011;37695;52.960;6.188;2023-10-13T12:08:47;13.43;;;6.45;;
51614;SDS011;37695;52.960;6.188;2023-10-13T12:11:17;12.48;;;6.25;;
51614;SDS011;37695;52.960;6.188;2023-10-13T12:13:56;18.27;;;7.25;;
51614;SDS011;37695;52.960;6.188;2023-10-13T12:16:21;15.07;;;6.03;;
51614;SDS011;37695;52.960;6.188;2023-10-13T12:18:47;12.80;;;7.22;;
51614;SDS011;37695;52.960;6.188;2023-10-13T12:21:19;16.63;;;6.43;;
51614;SDS011;37695;52.960;6.188;2023-10-13T12:23:46;12.13;;;6.45;;
51614;SDS011;37695;52.960;6.188;2023-10-13T12:26:12;17.70;;;6.45;;
51614;SDS011;37695;52.960;6.188;2023-10-13T12:28:57;13.73;;;6.32;;
51614;SDS011;37695;52.960;6.188;2023-10-13T12:31:31;18.45;;;6.47;;
51614;SDS011;37695;52.960;6.188;2023-10-13T12:33:58;18.02;;;6.38;;
51614;SDS011;37695;52.960;6.188;2023-10-13T12:36:31;15.25;;;6.72;;
51614;SDS011;37695;52.960;6.188;2023-10-13T12:39:06;16.85;;;7.10;;
51614;SDS011;37695;52.960;6.188;2023-10-13T12:41:32;19.30;;;7.55;;
51614;SDS011;37695;52.960;6.188;2023-10-13T12:44:16;15.35;;;7.07;;
51614;SDS011;37695;52.960;6.188;2023-10-13T12:47:00;19.77;;;7.50;;
51614;SDS011;37695;52.960;6.188;2023-10-13T12:49:45;16.25;;;7.22;;
51614;SDS011;37695;52.960;6.188;2023-10-13T12:52:10;16.58;;;6.82;;
51614;SDS011;37695;52.960;6.188;2023-10-13T12:54:50;18.35;;;7.50;;
51614;SDS011;37695;52.960;6.188;2023-10-13T12:57:27;14.55;;;7.07;;
51614;SDS011;37695;52.960;6.188;2023-10-13T12:59:53;16.20;;;7.50;;
51614;SDS011;37695;52.960;6.188;2023-10-13T13:02:22;17.90;;;7.57;;
51614;SDS011;37695;52.960;6.188;2023-10-13T13:04:52;17.08;;;7.53;;
51614;SDS011;37695;52.960;6.188;2023-10-13T13:07:37;17.83;;;6.93;;
51614;SDS011;37695;52.960;6.188;2023-10-13T13:10:12;14.48;;;7.57;;
51614;SDS011;37695;52.960;6.188;2023-10-13T13:12:42;19.85;;;7.38;;
51614;SDS011;37695;52.960;6.188;2023-10-13T13:15:08;14.38;;;7.15;;
51614;SDS011;37695;52.960;6.188;2023-10-13T13:17:37;13.73;;;7.30;;
51614;SDS011;37695;52.960;6.188;2023-10-13T13:20:06;15.10;;;7.05;;
51614;SDS011;37695;52.960;6.188;2023-10-13T13:22:53;14.32;;;7.10;;
51614;SDS011;37695;52.960;6.188;2023-10-13T13:25:20;14.00;;;7.38;;
51614;SDS011;37695;52.960;6.188;2023-10-13T13:27:51;16.65;;;7.30;;
51614;SDS011;37695;52.960;6.188;2023-10-13T13:30:16;16.83;;;6.82;;
51614;SDS011;37695;52.960;6.188;2023-10-13T13:32:45;13.88;;;7.32;;
51614;SDS011;37695;52.960;6.188;2023-10-13T13:35:11;17.83;;;7.85;;
51614;SDS011;37695;52.960;6.188;2023-10-13T13:37:39;17.30;;;7.50;;
51614;SDS011;37695;52.960;6.188;2023-10-13T13:40:05;20.75;;;7.53;;
51614;SDS011;37695;52.960;6.188;2023-10-13T13:42:41;15.07;;;7.70;;
51614;SDS011;37695;52.960;6.188;2023-10-13T13:45:11;22.48;;;7.32;;
51614;SDS011;37695;52.960;6.188;2023-10-13T13:47:46;13.20;;;7.40;;
51614;SDS011;37695;52.960;6.188;2023-10-13T13:50:15;18.45;;;8.02;;
51614;SDS011;37695;52.960;6.188;2023-10-13T13:52:48;14.93;;;7.03;;
51614;SDS011;37695;52.960;6.188;2023-10-13T13:55:14;19.20;;;7.70;;
51614;SDS011;37695;52.960;6.188;2023-10-13T13:57:42;15.15;;;7.22;;
51614;SDS011;37695;52.960;6.188;2023-10-13T14:00:10;16.80;;;8.18;;
51614;SDS011;37695;52.960;6.188;2023-10-13T14:02:43;16.65;;;6.90;;
51614;SDS011;37695;52.960;6.188;2023-10-13T14:05:13;14.40;;;7.10;;
51614;SDS011;37695;52.960;6.188;2023-10-13T14:07:45;17.05;;;7.22;;
51614;SDS011;37695;52.960;6.188;2023-10-13T14:10:17;16.35;;;7.10;;
51614;SDS011;37695;52.960;6.188;2023-10-13T14:13:00;17.42;;;7.70;;
51614;SDS011;37695;52.960;6.188;2023-10-13T14:15:46;15.85;;;7.18;;
51614;SDS011;37695;52.960;6.188;2023-10-13T14:18:11;16.23;;;8.02;;
51614;SDS011;37695;52.960;6.188;2023-10-13T14:20:42;15.32;;;8.00;;
51614;SDS011;37695;52.960;6.188;2023-10-13T14:23:08;20.27;;;7.53;;
51614;SDS011;37695;52.960;6.188;2023-10-13T14:25:37;18.33;;;7.75;;
51614;SDS011;37695;52.960;6.188;2023-10-13T14:28:06;21.27;;;7.72;;
51614;SDS011;37695;52.960;6.188;2023-10-13T14:30:32;15.07;;;7.25;;
51614;SDS011;37695;52.960;6.188;2023-10-13T14:32:58;18.23;;;7.10;;
51614;SDS011;37695;52.960;6.188;2023-10-13T14:35:24;25.08;;;7.70;;
51614;SDS011;37695;52.960;6.188;2023-10-13T14:37:54;18.65;;;7.97;;
51614;SDS011;37695;52.960;6.188;2023-10-13T14:40:20;15.77;;;7.85;;
51614;SDS011;37695;52.960;6.188;2023-10-13T14:42:48;15.02;;;6.78;;
51614;SDS011;37695;52.960;6.188;2023-10-13T14:45:14;16.58;;;7.38;;
51614;SDS011;37695;52.960;6.188;2023-10-13T14:47:41;16.60;;;7.68;;
51614;SDS011;37695;52.960;6.188;2023-10-13T14:50:08;19.33;;;7.47;;
51614;SDS011;37695;52.960;6.188;2023-10-13T14:52:42;17.52;;;6.75;;
51614;SDS011;37695;52.960;6.188;2023-10-13T14:55:08;18.65;;;8.23;;
51614;SDS011;37695;52.960;6.188;2023-10-13T14:57:44;15.13;;;7.60;;
51614;SDS011;37695;52.960;6.188;2023-10-13T15:00:13;19.75;;;7.55;;
51614;SDS011;37695;52.960;6.188;2023-10-13T15:02:39;13.73;;;8.25;;
51614;SDS011;37695;52.960;6.188;2023-10-13T15:05:08;16.33;;;7.63;;
51614;SDS011;37695;52.960;6.188;2023-10-13T15:07:42;17.10;;;7.78;;
51614;SDS011;37695;52.960;6.188;2023-10-13T15:10:14;20.63;;;7.70;;
51614;SDS011;37695;52.960;6.188;2023-10-13T15:12:40;20.10;;;8.52;;
51614;SDS011;37695;52.960;6.188;2023-10-13T15:15:09;17.75;;;8.43;;
51614;SDS011;37695;52.960;6.188;2023-10-13T15:17:39;17.13;;;8.73;;
51614;SDS011;37695;52.960;6.188;2023-10-13T15:20:08;16.85;;;8.98;;
51614;SDS011;37695;52.960;6.188;2023-10-13T15:22:43;18.30;;;8.57;;
51614;SDS011;37695;52.960;6.188;2023-10-13T15:25:12;16.48;;;7.50;;
51614;SDS011;37695;52.960;6.188;2023-10-13T15:27:56;21.80;;;9.43;;
51614;SDS011;37695;52.960;6.188;2023-10-13T15:30:33;17.50;;;9.77;;
51614;SDS011;37695;52.960;6.188;2023-10-13T15:33:17;20.25;;;9.02;;
51614;SDS011;37695;52.960;6.188;2023-10-13T15:35:45;23.65;;;9.52;;
51614;SDS011;37695;52.960;6.188;2023-10-13T15:38:10;20.05;;;8.68;;
51614;SDS011;37695;52.960;6.188;2023-10-13T15:40:46;18.95;;;10.45;;
51614;SDS011;37695;52.960;6.188;2023-10-13T15:43:11;20.17;;;8.73;;